Terminal Aerodrome Forecast
Issued by NWS

Home | Current Version | Previous Version | Text Only | Print | Product List | Glossary Off
Versions: 1 2 3 4 5 6 7 8 9 10 11 12 13 14 15 16 17 18

000
FTUS43 KGRB 231700
TAFATW
TAF
KATW 231728Z 2318/2418 23013G21KT P6SM OVC080 WS017/25040KT
      TEMPO 2320/2322 -SNPL SCT040 OVC060
     FM232200 25009KT P6SM SCT030 OVC050
     FM240000 26007KT P6SM SCT050 SCT100
     FM240500 29007KT P6SM BKN025=

USA.gov is the U.S. government's official web portal to all federal, state and local government web resources and services.